createdAt,value
2022-08-20T00:00:05.816Z,1007.49
2022-08-20T00:01:05.815Z,1007.49
2022-08-20T00:02:05.801Z,1007.51
2022-08-20T00:03:05.712Z,1007.52
2022-08-20T00:04:05.708Z,1007.52
2022-08-20T00:05:05.708Z,1007.54
2022-08-20T00:06:05.660Z,1007.55
2022-08-20T00:07:05.661Z,1007.51
2022-08-20T00:08:07.140Z,1007.54
2022-08-20T00:09:06.768Z,1007.55
2022-08-20T00:10:05.670Z,1007.52
2022-08-20T00:11:05.600Z,1007.50
2022-08-20T00:12:06.476Z,1007.52
2022-08-20T00:13:05.630Z,1007.50
2022-08-20T00:14:05.597Z,1007.49
2022-08-20T00:15:05.566Z,1007.51
2022-08-20T00:16:05.567Z,1007.53
2022-08-20T00:17:05.528Z,1007.51
2022-08-20T00:18:05.539Z,1007.54
2022-08-20T00:19:05.544Z,1007.53
2022-08-20T00:20:05.540Z,1007.53
2022-08-20T00:21:05.468Z,1007.58
2022-08-20T00:22:06.545Z,1007.59
2022-08-20T00:23:10.220Z,1007.58
2022-08-20T00:24:06.494Z,1007.59
2022-08-20T00:25:05.690Z,1007.61
2022-08-20T00:26:05.451Z,1007.58
2022-08-20T00:27:05.409Z,1007.59
2022-08-20T00:28:05.428Z,1007.60
2022-08-20T00:29:05.366Z,1007.63
2022-08-20T00:30:05.401Z,1007.61
2022-08-20T00:31:05.355Z,1007.60
2022-08-20T00:32:05.367Z,1007.66
2022-08-20T00:33:05.348Z,1007.66
2022-08-20T00:34:05.318Z,1007.65
2022-08-20T00:35:05.373Z,1007.67
2022-08-20T00:36:05.317Z,1007.71
2022-08-20T00:37:05.270Z,1007.73
2022-08-20T00:38:05.420Z,1007.73
2022-08-20T00:39:05.273Z,1007.69
2022-08-20T00:40:05.275Z,1007.69
2022-08-20T00:41:06.274Z,1007.69
2022-08-20T00:42:05.228Z,1007.71
2022-08-20T00:43:06.067Z,1007.71
2022-08-20T00:44:05.218Z,1007.72
2022-08-20T00:45:05.170Z,1007.68
2022-08-20T00:46:05.159Z,1007.70
2022-08-20T00:47:05.269Z,1007.69
2022-08-20T00:48:06.100Z,1007.71
2022-08-20T00:49:05.126Z,1007.68
2022-08-20T00:50:05.113Z,1007.68
2022-08-20T00:51:05.075Z,1007.68
2022-08-20T00:52:05.156Z,1007.68
2022-08-20T00:53:05.064Z,1007.68
2022-08-20T00:54:05.280Z,1007.67
2022-08-20T00:55:05.032Z,1007.66
2022-08-20T00:56:05.011Z,1007.65
2022-08-20T00:57:05.054Z,1007.64
2022-08-20T00:58:05.291Z,1007.63
2022-08-20T00:59:06.063Z,1007.63
2022-08-20T01:00:06.952Z,1007.62
2022-08-20T01:01:05.003Z,1007.64
2022-08-20T01:02:05.055Z,1007.66
2022-08-20T01:03:04.956Z,1007.68
2022-08-20T01:04:04.918Z,1007.69
2022-08-20T01:05:04.917Z,1007.68
2022-08-20T01:06:04.895Z,1007.73
2022-08-20T01:07:04.887Z,1007.76
2022-08-20T01:08:04.857Z,1007.79
2022-08-20T01:09:04.896Z,1007.80
2022-08-20T01:10:04.834Z,1007.84
2022-08-20T01:11:04.877Z,1007.80
2022-08-20T01:12:04.885Z,1007.81
2022-08-20T01:13:04.784Z,1007.88
2022-08-20T01:14:04.839Z,1007.88
2022-08-20T01:15:04.858Z,1007.90
2022-08-20T01:16:04.918Z,1007.90
2022-08-20T01:17:04.800Z,1007.87
2022-08-20T01:18:04.750Z,1007.91
2022-08-20T01:19:04.739Z,1007.89
2022-08-20T01:20:05.720Z,1007.92
2022-08-20T01:21:04.692Z,1007.94
2022-08-20T01:22:04.711Z,1007.91
2022-08-20T01:23:04.705Z,1007.92
2022-08-20T01:24:04.681Z,1007.93
2022-08-20T01:25:04.781Z,1007.91
2022-08-20T01:26:04.704Z,1007.90
2022-08-20T01:27:04.633Z,1007.91
2022-08-20T01:28:04.611Z,1007.89
2022-08-20T01:29:04.585Z,1007.82
2022-08-20T01:30:06.039Z,1007.86
2022-08-20T01:31:04.551Z,1007.81
2022-08-20T01:32:04.571Z,1007.80
2022-08-20T01:33:04.551Z,1007.84
2022-08-20T01:34:04.589Z,1007.80
2022-08-20T01:35:04.507Z,1007.85
2022-08-20T01:36:04.560Z,1007.81
2022-08-20T01:37:04.471Z,1007.79
2022-08-20T01:38:04.472Z,1007.77
2022-08-20T01:39:04.503Z,1007.75
2022-08-20T01:40:04.486Z,1007.74
2022-08-20T01:41:04.432Z,1007.76
2022-08-20T01:42:04.459Z,1007.72
2022-08-20T01:43:04.417Z,1007.76
2022-08-20T01:44:04.439Z,1007.73
2022-08-20T01:45:04.500Z,1007.76
2022-08-20T01:46:04.426Z,1007.76
2022-08-20T01:47:04.383Z,1007.76
2022-08-20T01:48:04.460Z,1007.82
2022-08-20T01:49:04.358Z,1007.85
2022-08-20T01:50:05.328Z,1007.84
2022-08-20T01:51:05.171Z,1007.85
2022-08-20T01:52:04.291Z,1007.84
2022-08-20T01:53:05.492Z,1007.83
2022-08-20T01:54:04.288Z,1007.83
2022-08-20T01:55:04.307Z,1007.81
2022-08-20T01:56:04.232Z,1007.86
2022-08-20T01:57:04.271Z,1007.85
2022-08-20T01:58:04.663Z,1007.85
2022-08-20T01:59:04.420Z,1007.85
2022-08-20T02:00:04.244Z,1007.83
2022-08-20T02:01:04.160Z,1007.82
2022-08-20T02:02:04.215Z,1007.85
2022-08-20T02:03:04.151Z,1007.84
2022-08-20T02:04:04.344Z,1007.83
2022-08-20T02:05:04.122Z,1007.85
2022-08-20T02:06:04.132Z,1007.80
2022-08-20T02:07:04.161Z,1007.82
2022-08-20T02:08:04.131Z,1007.87
2022-08-20T02:09:04.070Z,1007.84
2022-08-20T02:10:04.084Z,1007.87
2022-08-20T02:11:04.083Z,1007.84
2022-08-20T02:12:04.019Z,1007.87
2022-08-20T02:13:04.027Z,1007.87
2022-08-20T02:14:04.024Z,1007.88
2022-08-20T02:15:03.983Z,1007.93
2022-08-20T02:16:04.068Z,1007.94
2022-08-20T02:17:03.968Z,1007.90
2022-08-20T02:18:04.019Z,1007.92
2022-08-20T02:19:04.166Z,1007.92
2022-08-20T02:20:03.941Z,1007.91
2022-08-20T02:21:03.917Z,1007.89
2022-08-20T02:22:03.916Z,1007.86
2022-08-20T02:23:03.876Z,1007.85
2022-08-20T02:24:03.912Z,1007.83
2022-08-20T02:25:03.874Z,1007.80
2022-08-20T02:26:03.879Z,1007.85
2022-08-20T02:27:03.831Z,1007.84
2022-08-20T02:28:03.807Z,1007.87
2022-08-20T02:29:03.859Z,1007.86
2022-08-20T02:30:03.821Z,1007.85
2022-08-20T02:31:03.788Z,1007.85
2022-08-20T02:32:24.873Z,1007.86
2022-08-20T02:33:04.753Z,1007.87
2022-08-20T02:34:22.578Z,1007.82
2022-08-20T02:35:04.727Z,1007.84
2022-08-20T02:36:03.724Z,1007.85
2022-08-20T02:37:03.772Z,1007.85
2022-08-20T02:38:03.746Z,1007.80
2022-08-20T02:39:03.663Z,1007.83
2022-08-20T02:40:03.708Z,1007.81
2022-08-20T02:41:03.675Z,1007.78
2022-08-20T02:42:03.625Z,1007.83
2022-08-20T02:43:03.695Z,1007.81
2022-08-20T02:44:03.605Z,1007.84
2022-08-20T02:45:03.617Z,1007.84
2022-08-20T02:46:03.597Z,1007.85
2022-08-20T02:47:03.614Z,1007.84
2022-08-20T02:48:03.556Z,1007.82
2022-08-20T02:49:03.617Z,1007.86
2022-08-20T02:50:03.544Z,1007.87
2022-08-20T02:51:03.552Z,1007.86
2022-08-20T02:52:03.543Z,1007.87
2022-08-20T02:53:03.535Z,1007.91
2022-08-20T02:54:04.226Z,1007.95
2022-08-20T02:55:03.471Z,1007.97
2022-08-20T02:56:03.467Z,1008.00
2022-08-20T02:57:03.460Z,1007.94
2022-08-20T02:58:03.427Z,1007.99
2022-08-20T02:59:03.431Z,1008.01
2022-08-20T03:00:03.398Z,1007.99
2022-08-20T03:01:03.512Z,1007.98
2022-08-20T03:02:03.366Z,1007.97
2022-08-20T03:03:03.480Z,1007.97
2022-08-20T03:04:03.342Z,1007.93
2022-08-20T03:05:03.318Z,1007.91
2022-08-20T03:06:03.306Z,1007.92
2022-08-20T03:07:03.332Z,1007.94
2022-08-20T03:08:03.326Z,1007.93
2022-08-20T03:09:03.375Z,1007.93
2022-08-20T03:10:03.374Z,1007.94
2022-08-20T03:11:03.251Z,1007.98
2022-08-20T03:12:03.302Z,1007.97
2022-08-20T03:13:03.224Z,1008.00
2022-08-20T03:14:03.212Z,1008.00
2022-08-20T03:15:03.232Z,1008.03
2022-08-20T03:16:03.191Z,1008.05
2022-08-20T03:17:03.233Z,1008.09
2022-08-20T03:18:03.233Z,1008.08
2022-08-20T03:19:03.145Z,1008.10
2022-08-20T03:20:03.138Z,1008.08
2022-08-20T03:21:03.119Z,1008.11
2022-08-20T03:22:03.150Z,1008.08
2022-08-20T03:23:03.202Z,1008.07
2022-08-20T03:24:03.107Z,1008.10
2022-08-20T03:25:03.091Z,1008.06
2022-08-20T03:26:03.048Z,1008.10
2022-08-20T03:27:03.051Z,1008.09
2022-08-20T03:28:03.118Z,1008.05
2022-08-20T03:29:03.031Z,1008.02
2022-08-20T03:30:02.989Z,1008.03
2022-08-20T03:31:03.028Z,1008.04
2022-08-20T03:32:07.191Z,1008.01
2022-08-20T03:33:02.968Z,1008.05
2022-08-20T03:34:02.939Z,1008.02
2022-08-20T03:35:02.929Z,1008.05
2022-08-20T03:36:02.979Z,1008.04
2022-08-20T03:37:02.923Z,1008.04
2022-08-20T03:38:03.400Z,1008.05
2022-08-20T03:39:02.949Z,1008.00
2022-08-20T03:40:02.942Z,1008.01
2022-08-20T03:41:02.857Z,1007.98
2022-08-20T03:42:02.840Z,1007.99
2022-08-20T03:43:02.845Z,1008.02
2022-08-20T03:44:02.903Z,1008.04
2022-08-20T03:45:03.164Z,1008.01
2022-08-20T03:46:02.860Z,1008.06
2022-08-20T03:47:02.898Z,1008.08
2022-08-20T03:48:03.024Z,1008.12
2022-08-20T03:49:02.766Z,1008.07
2022-08-20T03:50:02.784Z,1008.09
2022-08-20T03:51:02.713Z,1008.13
2022-08-20T03:52:02.777Z,1008.11
2022-08-20T03:53:02.806Z,1008.08
2022-08-20T03:54:02.692Z,1008.14
2022-08-20T03:55:02.679Z,1008.13
2022-08-20T03:56:02.695Z,1008.16
2022-08-20T03:57:02.657Z,1008.17
2022-08-20T03:58:02.629Z,1008.16
2022-08-20T03:59:02.664Z,1008.16
2022-08-20T04:00:02.586Z,1008.15
2022-08-20T04:01:02.644Z,1008.16
2022-08-20T04:02:02.672Z,1008.17
2022-08-20T04:03:02.660Z,1008.13
2022-08-20T04:04:02.632Z,1008.19
2022-08-20T04:05:02.533Z,1008.16
2022-08-20T04:06:02.513Z,1008.18
2022-08-20T04:07:02.605Z,1008.14
2022-08-20T04:08:03.418Z,1008.12
2022-08-20T04:09:02.556Z,1008.14
2022-08-20T04:10:02.457Z,1008.20
2022-08-20T04:11:02.450Z,1008.19
2022-08-20T04:12:02.429Z,1008.15
2022-08-20T04:13:02.501Z,1008.17
2022-08-20T04:14:02.462Z,1008.19
2022-08-20T04:15:02.519Z,1008.21
2022-08-20T04:16:02.380Z,1008.16
2022-08-20T04:17:02.441Z,1008.18
2022-08-20T04:18:02.403Z,1008.18
2022-08-20T04:19:02.838Z,1008.18
2022-08-20T04:20:02.350Z,1008.15
2022-08-20T04:21:02.349Z,1008.11
2022-08-20T04:22:02.304Z,1008.09
2022-08-20T04:23:02.305Z,1008.04
2022-08-20T04:24:02.492Z,1008.06
2022-08-20T04:25:02.276Z,1008.08
2022-08-20T04:26:02.267Z,1008.11
2022-08-20T04:27:02.320Z,1008.07
2022-08-20T04:28:02.228Z,1008.17
2022-08-20T04:29:02.237Z,1008.17
2022-08-20T04:30:02.221Z,1008.19
2022-08-20T04:31:02.197Z,1008.22
2022-08-20T04:32:02.801Z,1008.23
2022-08-20T04:33:02.169Z,1008.21
2022-08-20T04:34:02.197Z,1008.22
2022-08-20T04:35:02.276Z,1008.22
2022-08-20T04:36:02.156Z,1008.26
2022-08-20T04:37:02.101Z,1008.23
2022-08-20T04:38:02.138Z,1008.26
2022-08-20T04:39:02.131Z,1008.26
2022-08-20T04:40:02.107Z,1008.23
2022-08-20T04:41:02.071Z,1008.21
2022-08-20T04:42:02.129Z,1008.22
2022-08-20T04:43:02.034Z,1008.24
2022-08-20T04:44:02.013Z,1008.19
2022-08-20T04:45:02.021Z,1008.19
2022-08-20T04:46:02.005Z,1008.21
2022-08-20T04:47:01.974Z,1008.26
2022-08-20T04:48:01.982Z,1008.26
2022-08-20T04:49:01.978Z,1008.26
2022-08-20T04:50:01.962Z,1008.32
2022-08-20T04:51:01.954Z,1008.34
2022-08-20T04:52:01.985Z,1008.36
2022-08-20T04:53:01.972Z,1008.41
2022-08-20T04:54:01.976Z,1008.39
2022-08-20T04:55:01.899Z,1008.34
2022-08-20T04:56:01.855Z,1008.29
2022-08-20T04:57:01.915Z,1008.26
2022-08-20T04:58:01.831Z,1008.29
2022-08-20T04:59:01.820Z,1008.31
2022-08-20T05:00:01.815Z,1008.37
2022-08-20T05:01:01.874Z,1008.37
2022-08-20T05:02:01.798Z,1008.41
2022-08-20T05:03:01.768Z,1008.44
2022-08-20T05:04:01.874Z,1008.44
2022-08-20T05:05:01.799Z,1008.49
2022-08-20T05:06:01.755Z,1008.50
2022-08-20T05:07:01.789Z,1008.50
2022-08-20T05:08:01.863Z,1008.48
2022-08-20T05:09:01.677Z,1008.51
2022-08-20T05:10:01.723Z,1008.54
2022-08-20T05:11:24.973Z,1008.54
2022-08-20T05:12:02.718Z,1008.54
2022-08-20T05:13:01.621Z,1008.53
2022-08-20T05:14:01.618Z,1008.59
2022-08-20T05:15:01.608Z,1008.57
2022-08-20T05:16:01.680Z,1008.57
2022-08-20T05:17:01.689Z,1008.57
2022-08-20T05:18:01.644Z,1008.59
2022-08-20T05:19:01.555Z,1008.57
2022-08-20T05:20:01.549Z,1008.59
2022-08-20T05:21:01.511Z,1008.57
2022-08-20T05:22:01.653Z,1008.52
2022-08-20T05:23:01.535Z,1008.56
2022-08-20T05:24:01.504Z,1008.58
2022-08-20T05:25:01.463Z,1008.49
2022-08-20T05:26:01.505Z,1008.52
2022-08-20T05:27:01.454Z,1008.53
2022-08-20T05:28:01.447Z,1008.48
2022-08-20T05:29:01.407Z,1008.55
2022-08-20T05:30:01.407Z,1008.51
2022-08-20T05:31:01.391Z,1008.52
2022-08-20T05:32:01.523Z,1008.52
2022-08-20T05:33:01.365Z,1008.54
2022-08-20T05:34:01.510Z,1008.50
2022-08-20T05:35:01.334Z,1008.52
2022-08-20T05:36:01.311Z,1008.54
2022-08-20T05:37:01.388Z,1008.52
2022-08-20T05:38:01.316Z,1008.57
2022-08-20T05:39:01.330Z,1008.52
2022-08-20T05:40:01.321Z,1008.55
2022-08-20T05:41:01.248Z,1008.59
2022-08-20T05:42:01.272Z,1008.60
2022-08-20T05:43:01.272Z,1008.59
2022-08-20T05:44:01.560Z,1008.63
2022-08-20T05:45:01.220Z,1008.64
2022-08-20T05:46:01.181Z,1008.66
2022-08-20T05:47:01.192Z,1008.63
2022-08-20T05:48:03.412Z,1008.63
2022-08-20T05:49:01.161Z,1008.66
2022-08-20T05:50:01.167Z,1008.67
2022-08-20T05:51:01.109Z,1008.67
2022-08-20T05:52:01.121Z,1008.68
2022-08-20T05:53:01.133Z,1008.65
2022-08-20T05:54:01.101Z,1008.63
2022-08-20T05:55:01.134Z,1008.66
2022-08-20T05:56:01.103Z,1008.65
2022-08-20T05:57:01.063Z,1008.68
2022-08-20T05:58:01.050Z,1008.68
2022-08-20T05:59:01.071Z,1008.67
2022-08-20T06:00:01.114Z,1008.63
2022-08-20T06:01:01.093Z,1008.61
2022-08-20T06:02:00.994Z,1008.68
2022-08-20T06:03:00.963Z,1008.68
2022-08-20T06:04:00.947Z,1008.73
2022-08-20T06:05:00.956Z,1008.70
2022-08-20T06:06:00.927Z,1008.74
2022-08-20T06:07:00.967Z,1008.76
2022-08-20T06:08:07.307Z,1008.76
2022-08-20T06:09:01.882Z,1008.74
2022-08-20T06:10:00.940Z,1008.78
2022-08-20T06:11:00.900Z,1008.71
2022-08-20T06:12:00.837Z,1008.76
2022-08-20T06:13:00.908Z,1008.75
2022-08-20T06:14:00.827Z,1008.75
2022-08-20T06:15:00.832Z,1008.71
2022-08-20T06:16:00.911Z,1008.74
2022-08-20T06:17:01.787Z,1008.77
2022-08-20T06:18:01.676Z,1008.75
2022-08-20T06:19:02.730Z,1008.79
2022-08-20T06:20:00.771Z,1008.80
2022-08-20T06:21:00.759Z,1008.81
2022-08-20T06:22:00.953Z,1008.80
2022-08-20T06:23:00.714Z,1008.82
2022-08-20T06:24:02.231Z,1008.84
2022-08-20T06:25:00.701Z,1008.86
2022-08-20T06:26:00.664Z,1008.81
2022-08-20T06:27:00.777Z,1008.84
2022-08-20T06:28:00.679Z,1008.85
2022-08-20T06:29:00.620Z,1008.87
2022-08-20T06:30:01.465Z,1008.87
2022-08-20T06:31:00.598Z,1008.87
2022-08-20T06:32:00.586Z,1008.88
2022-08-20T06:33:00.563Z,1008.91
2022-08-20T06:34:00.734Z,1008.93
2022-08-20T06:35:01.442Z,1008.91
2022-08-20T06:36:00.605Z,1008.93
2022-08-20T06:37:00.547Z,1008.93
2022-08-20T06:38:00.543Z,1008.93
2022-08-20T06:39:00.505Z,1008.87
2022-08-20T06:40:00.653Z,1008.89
2022-08-20T06:41:00.487Z,1008.88
2022-08-20T06:42:00.447Z,1008.91
2022-08-20T06:43:00.507Z,1008.91
2022-08-20T06:44:00.475Z,1008.96
2022-08-20T06:45:00.462Z,1008.94
2022-08-20T06:46:00.496Z,1008.92
2022-08-20T06:47:01.329Z,1008.97
2022-08-20T06:48:01.230Z,1009.00
2022-08-20T06:49:00.472Z,1008.97
2022-08-20T06:50:00.395Z,1009.01
2022-08-20T06:51:00.412Z,1009.01
2022-08-20T06:52:00.380Z,1008.99
2022-08-20T06:53:00.322Z,1008.98
2022-08-20T06:54:00.348Z,1008.93
2022-08-20T06:55:00.279Z,1008.96
2022-08-20T06:56:00.331Z,1008.95
2022-08-20T06:57:00.344Z,1008.91
2022-08-20T06:58:00.310Z,1008.88
2022-08-20T06:59:00.242Z,1008.84
2022-08-20T07:00:00.254Z,1008.83
2022-08-20T07:01:04.475Z,1008.83
2022-08-20T07:02:01.183Z,1008.84
2022-08-20T07:03:00.250Z,1008.80
2022-08-20T07:04:00.244Z,1008.82
2022-08-20T07:05:00.233Z,1008.80
2022-08-20T07:06:00.209Z,1008.82
2022-08-20T07:07:00.421Z,1008.80
2022-08-20T07:08:00.117Z,1008.86
2022-08-20T07:09:00.363Z,1008.87
2022-08-20T07:10:00.132Z,1008.84
2022-08-20T07:11:00.115Z,1008.87
2022-08-20T07:12:00.977Z,1008.91
2022-08-20T07:13:00.072Z,1008.90
2022-08-20T07:14:00.116Z,1008.88
2022-08-20T07:15:00.050Z,1008.89
2022-08-20T07:16:00.006Z,1008.93
2022-08-20T07:17:00.001Z,1008.94
2022-08-20T07:18:01.450Z,1008.98
2022-08-20T07:19:00.092Z,1008.99
2022-08-20T07:19:59.999Z,1009.00
2022-08-20T07:21:00.010Z,1008.97
2022-08-20T07:22:00.174Z,1008.95
2022-08-20T07:22:59.912Z,1008.94
2022-08-20T07:23:59.905Z,1008.91
2022-08-20T07:24:59.879Z,1008.97
2022-08-20T07:25:59.880Z,1008.99
2022-08-20T07:26:59.882Z,1008.97
2022-08-20T07:27:59.855Z,1008.98
2022-08-20T07:28:59.833Z,1009.01
2022-08-20T07:29:59.816Z,1009.04
2022-08-20T07:30:59.855Z,1009.03
2022-08-20T07:32:00.856Z,1009.01
2022-08-20T07:32:59.784Z,1009.03
2022-08-20T07:33:59.885Z,1009.05
2022-08-20T07:34:59.744Z,1009.02
2022-08-20T07:35:59.735Z,1009.03
2022-08-20T07:36:59.778Z,1009.04
2022-08-20T07:37:59.743Z,1009.07
2022-08-20T07:38:59.720Z,1009.12
2022-08-20T07:40:00.726Z,1009.10
2022-08-20T07:40:59.688Z,1009.11
2022-08-20T07:41:59.676Z,1009.09
2022-08-20T07:42:59.677Z,1009.10
2022-08-20T07:43:59.629Z,1009.11
2022-08-20T07:44:59.744Z,1009.12
2022-08-20T07:45:59.649Z,1009.13
2022-08-20T07:46:59.877Z,1009.12
2022-08-20T07:47:59.646Z,1009.11
2022-08-20T07:48:59.598Z,1009.13
2022-08-20T07:49:59.689Z,1009.15
2022-08-20T07:50:59.645Z,1009.10
2022-08-20T07:51:59.867Z,1009.15
2022-08-20T07:52:59.571Z,1009.15
2022-08-20T07:53:59.528Z,1009.13
2022-08-20T07:54:59.490Z,1009.16
2022-08-20T07:55:59.625Z,1009.20
2022-08-20T07:56:59.451Z,1009.15
2022-08-20T07:57:59.492Z,1009.18
2022-08-20T07:58:59.443Z,1009.21
2022-08-20T07:59:59.421Z,1009.19
2022-08-20T08:00:59.535Z,1009.20
2022-08-20T08:01:59.411Z,1009.22
2022-08-20T08:02:59.592Z,1009.19
2022-08-20T08:03:59.413Z,1009.23
2022-08-20T08:04:59.373Z,1009.24
2022-08-20T08:05:59.396Z,1009.26
2022-08-20T08:06:59.356Z,1009.27
2022-08-20T08:07:59.314Z,1009.27
2022-08-20T08:08:59.476Z,1009.28
2022-08-20T08:09:59.343Z,1009.26
2022-08-20T08:10:59.300Z,1009.29
2022-08-20T08:11:59.316Z,1009.30
2022-08-20T08:12:59.287Z,1009.26
2022-08-20T08:13:59.256Z,1009.29
2022-08-20T08:14:59.342Z,1009.30
2022-08-20T08:15:59.309Z,1009.36
2022-08-20T08:16:59.190Z,1009.28
2022-08-20T08:17:59.192Z,1009.32
2022-08-20T08:18:59.278Z,1009.31
2022-08-20T08:19:59.177Z,1009.32
2022-08-20T08:20:59.161Z,1009.36
2022-08-20T08:21:59.151Z,1009.33
2022-08-20T08:22:59.135Z,1009.34
2022-08-20T08:23:59.186Z,1009.33
2022-08-20T08:24:59.101Z,1009.36
2022-08-20T08:25:59.080Z,1009.37
2022-08-20T08:26:59.100Z,1009.35
2022-08-20T08:27:59.084Z,1009.39
2022-08-20T08:28:59.127Z,1009.41
2022-08-20T08:29:59.113Z,1009.36
2022-08-20T08:30:59.026Z,1009.44
2022-08-20T08:31:59.000Z,1009.39
2022-08-20T08:32:58.984Z,1009.37
2022-08-20T08:33:59.004Z,1009.34
2022-08-20T08:34:58.983Z,1009.35
2022-08-20T08:35:59.121Z,1009.36
2022-08-20T08:36:59.027Z,1009.40
2022-08-20T08:37:58.923Z,1009.38
2022-08-20T08:38:58.929Z,1009.39
2022-08-20T08:39:59.085Z,1009.40
2022-08-20T08:41:00.454Z,1009.38
2022-08-20T08:41:58.948Z,1009.44
2022-08-20T08:42:59.086Z,1009.41
2022-08-20T08:43:58.928Z,1009.43
2022-08-20T08:44:58.830Z,1009.50
2022-08-20T08:45:58.833Z,1009.45
2022-08-20T08:46:58.799Z,1009.50
2022-08-20T08:47:58.793Z,1009.49
2022-08-20T08:48:58.780Z,1009.45
2022-08-20T08:49:58.759Z,1009.47
2022-08-20T08:50:58.819Z,1009.49
2022-08-20T08:51:58.739Z,1009.51
2022-08-20T08:52:58.732Z,1009.53
2022-08-20T08:54:04.662Z,1009.54
2022-08-20T08:54:59.700Z,1009.56
2022-08-20T08:55:58.813Z,1009.58
2022-08-20T08:56:58.683Z,1009.62
2022-08-20T08:57:58.653Z,1009.55
2022-08-20T08:58:59.683Z,1009.56
2022-08-20T09:00:03.872Z,1009.56
2022-08-20T09:01:01.982Z,1009.65
2022-08-20T09:01:59.730Z,1009.61
2022-08-20T09:02:58.849Z,1009.63
2022-08-20T09:03:58.662Z,1009.63
2022-08-20T09:04:58.559Z,1009.65
2022-08-20T09:05:58.609Z,1009.64
2022-08-20T09:06:58.587Z,1009.67
2022-08-20T09:07:58.553Z,1009.63
2022-08-20T09:08:58.540Z,1009.61
2022-08-20T09:09:58.497Z,1009.66
2022-08-20T09:10:58.528Z,1009.65
2022-08-20T09:11:58.585Z,1009.67
2022-08-20T09:12:58.523Z,1009.70
2022-08-20T09:13:58.452Z,1009.72
2022-08-20T09:14:58.463Z,1009.72
2022-08-20T09:15:58.583Z,1009.69
2022-08-20T09:16:58.466Z,1009.71
2022-08-20T09:17:58.599Z,1009.69
2022-08-20T09:18:58.440Z,1009.68
2022-08-20T09:19:58.670Z,1009.73
2022-08-20T09:20:58.445Z,1009.73
2022-08-20T09:21:58.467Z,1009.76
2022-08-20T09:22:58.471Z,1009.70
2022-08-20T09:23:58.332Z,1009.72
2022-08-20T09:24:58.304Z,1009.80
2022-08-20T09:25:58.373Z,1009.77
2022-08-20T09:26:58.281Z,1009.79
2022-08-20T09:27:58.375Z,1009.78
2022-08-20T09:28:58.335Z,1009.79
2022-08-20T09:29:58.327Z,1009.76
2022-08-20T09:30:58.325Z,1009.76
2022-08-20T09:31:59.315Z,1009.80
2022-08-20T09:32:58.488Z,1009.80
2022-08-20T09:33:58.217Z,1009.77
2022-08-20T09:34:58.219Z,1009.79
2022-08-20T09:35:58.189Z,1009.77
2022-08-20T09:36:58.139Z,1009.81
2022-08-20T09:37:58.320Z,1009.83
2022-08-20T09:38:58.126Z,1009.84
2022-08-20T09:39:58.134Z,1009.78
2022-08-20T09:40:58.159Z,1009.83
2022-08-20T09:41:58.118Z,1009.85
2022-08-20T09:42:58.418Z,1009.76
2022-08-20T09:43:58.091Z,1009.78
2022-08-20T09:44:58.113Z,1009.79
2022-08-20T09:45:58.172Z,1009.75
2022-08-20T09:46:58.031Z,1009.76
2022-08-20T09:47:58.158Z,1009.75
2022-08-20T09:48:57.981Z,1009.78
2022-08-20T09:49:57.973Z,1009.78
2022-08-20T09:50:57.976Z,1009.77
2022-08-20T09:51:57.945Z,1009.77
2022-08-20T09:52:57.941Z,1009.78
2022-08-20T09:53:57.947Z,1009.84
2022-08-20T09:54:57.927Z,1009.76
2022-08-20T09:55:57.937Z,1009.81
2022-08-20T09:56:57.885Z,1009.81
2022-08-20T09:57:58.293Z,1009.78
2022-08-20T09:59:02.306Z,1009.80
2022-08-20T09:59:58.871Z,1009.79
2022-08-20T10:00:57.898Z,1009.83
2022-08-20T10:01:57.910Z,1009.77
2022-08-20T10:02:57.864Z,1009.81
2022-08-20T10:03:57.785Z,1009.82
2022-08-20T10:04:57.872Z,1009.75
2022-08-20T10:05:57.778Z,1009.79
2022-08-20T10:06:57.827Z,1009.76
2022-08-20T10:07:57.901Z,1009.76
2022-08-20T10:08:57.791Z,1009.74
2022-08-20T10:09:57.842Z,1009.74
2022-08-20T10:10:57.718Z,1009.77
2022-08-20T10:11:57.681Z,1009.75
2022-08-20T10:12:57.673Z,1009.80
2022-08-20T10:13:57.700Z,1009.79
2022-08-20T10:14:57.725Z,1009.83
2022-08-20T10:15:57.645Z,1009.84
2022-08-20T10:16:59.907Z,1009.81
2022-08-20T10:17:57.880Z,1009.81
2022-08-20T10:18:57.725Z,1009.82
2022-08-20T10:19:57.579Z,1009.81
2022-08-20T10:20:57.663Z,1009.84
2022-08-20T10:21:57.556Z,1009.85
2022-08-20T10:22:57.604Z,1009.84
2022-08-20T10:23:57.580Z,1009.85
2022-08-20T10:24:57.533Z,1009.84
2022-08-20T10:25:57.557Z,1009.87
2022-08-20T10:26:57.486Z,1009.89
2022-08-20T10:27:57.689Z,1009.87
2022-08-20T10:28:57.476Z,1009.91
2022-08-20T10:29:57.539Z,1009.89
2022-08-20T10:30:57.464Z,1009.90
2022-08-20T10:31:57.430Z,1009.88
2022-08-20T10:32:57.428Z,1009.84
2022-08-20T10:33:57.428Z,1009.81
2022-08-20T10:34:57.416Z,1009.84
2022-08-20T10:36:00.034Z,1009.83
2022-08-20T10:36:57.449Z,1009.80
2022-08-20T10:37:57.507Z,1009.84
2022-08-20T10:38:57.358Z,1009.81
2022-08-20T10:39:57.458Z,1009.79
2022-08-20T10:40:57.320Z,1009.83
2022-08-20T10:41:57.340Z,1009.83
2022-08-20T10:42:57.282Z,1009.79
2022-08-20T10:43:57.306Z,1009.80
2022-08-20T10:44:57.272Z,1009.76
2022-08-20T10:45:57.274Z,1009.79
2022-08-20T10:46:57.387Z,1009.75
2022-08-20T10:47:57.337Z,1009.73
2022-08-20T10:48:58.067Z,1009.71
2022-08-20T10:49:57.255Z,1009.70
2022-08-20T10:50:57.257Z,1009.72
2022-08-20T10:51:57.256Z,1009.74
2022-08-20T10:52:57.157Z,1009.72
2022-08-20T10:53:57.138Z,1009.72
2022-08-20T10:54:57.197Z,1009.72
2022-08-20T10:55:57.277Z,1009.79
2022-08-20T10:56:57.140Z,1009.80
2022-08-20T10:57:57.249Z,1009.72
2022-08-20T10:58:57.076Z,1009.77
2022-08-20T10:59:57.053Z,1009.76
2022-08-20T11:00:58.519Z,1009.76
2022-08-20T11:01:57.075Z,1009.74
2022-08-20T11:02:57.065Z,1009.75
2022-08-20T11:03:57.024Z,1009.78
2022-08-20T11:04:57.003Z,1009.77
2022-08-20T11:05:57.054Z,1009.78
2022-08-20T11:06:57.011Z,1009.79
2022-08-20T11:07:56.987Z,1009.76
2022-08-20T11:08:57.245Z,1009.77
2022-08-20T11:09:56.975Z,1009.77
2022-08-20T11:10:56.916Z,1009.79
2022-08-20T11:11:56.962Z,1009.76
2022-08-20T11:12:56.938Z,1009.79
2022-08-20T11:13:56.934Z,1009.78
2022-08-20T11:14:56.920Z,1009.78
2022-08-20T11:15:56.985Z,1009.80
2022-08-20T11:16:56.890Z,1009.73
2022-08-20T11:17:57.068Z,1009.77
2022-08-20T11:18:56.837Z,1009.74
2022-08-20T11:19:56.795Z,1009.73
2022-08-20T11:20:56.783Z,1009.77
2022-08-20T11:21:56.799Z,1009.77
2022-08-20T11:22:56.756Z,1009.79
2022-08-20T11:23:59.862Z,1009.83
2022-08-20T11:24:57.767Z,1009.78
2022-08-20T11:25:56.782Z,1009.84
2022-08-20T11:26:57.493Z,1009.78
2022-08-20T11:27:56.927Z,1009.82
2022-08-20T11:28:56.699Z,1009.83
2022-08-20T11:29:56.660Z,1009.85
2022-08-20T11:30:56.675Z,1009.85
2022-08-20T11:31:56.671Z,1009.89
2022-08-20T11:32:56.655Z,1009.94
2022-08-20T11:33:56.624Z,1009.88
2022-08-20T11:34:56.594Z,1009.91
2022-08-20T11:35:56.631Z,1009.93
2022-08-20T11:36:56.657Z,1009.95
2022-08-20T11:37:56.793Z,1009.93
2022-08-20T11:38:56.557Z,1009.95
2022-08-20T11:39:56.790Z,1009.96
2022-08-20T11:40:56.559Z,1009.97
2022-08-20T11:41:56.528Z,1009.98
2022-08-20T11:44:19.974Z,1009.99
2022-08-20T11:44:57.519Z,1009.96
2022-08-20T11:45:56.476Z,1009.96
2022-08-20T11:46:56.458Z,1009.97
2022-08-20T11:47:56.588Z,1009.99
2022-08-20T11:48:56.433Z,1009.98
2022-08-20T11:49:56.427Z,1009.99
2022-08-20T11:50:56.441Z,1009.97
2022-08-20T11:51:56.413Z,1009.93
2022-08-20T11:52:56.432Z,1009.92
2022-08-20T11:53:56.387Z,1009.95
2022-08-20T11:54:56.380Z,1009.91
2022-08-20T11:55:56.332Z,1009.87
2022-08-20T11:56:56.312Z,1009.86
2022-08-20T11:57:56.419Z,1009.88
2022-08-20T11:58:56.352Z,1009.94
2022-08-20T11:59:56.274Z,1009.92
2022-08-20T12:00:56.318Z,1009.89
2022-08-20T12:02:03.305Z,1009.92
2022-08-20T12:02:57.449Z,1009.91
2022-08-20T12:03:56.234Z,1009.93
2022-08-20T12:04:56.237Z,1009.94
2022-08-20T12:05:56.203Z,1009.89